Weyauwega, WI (54983)

10:35 PM CST on December 22, 2014 (GMT -0600)
W9SBU | Change Station
CLOSE
Current Station
Personal Weather Station
Location: Weyauwega, WI
Elevation: 822 ft
Nearby Weather Stations
Active Advisory: Special Statement

Elev 822 ft 44.32 °N, 88.93 °W | Updated 0 second ago

Rain
Rain
33.2 °F
Feels Like 33 °F
N
0.0
Wind Variable Wind from North
Gusts 0.0 mph

Today
High -- | Low -- °F
--% Chance of Precip.
Yesterday
High -- | Low -- °F
Precip. -- in
7:28 AM 4:19 PM
New Moon, 2% visible
Pressure 29.69 in
Visibility 3.0 miles
Clouds Overcast 500 ft
Windchill 33 °F
Dew Point 29 °F
Humidity 85%
Rainfall 0.00 in
Snow Depth Not available.
UV 0 out of 12
Pollen .10 out of 12
Air Quality Not available.
Flu Activity Not available.
METAR KPCZ 230415Z AUTO 05004KT 3SM RA OVC005 02/01 A2969 RMK AO2 T00150009

More Conditions Fewer Conditions

Pressure 29.69 in
Visibility 3.0 miles
Clouds Overcast 500 ft
Windchill 33 °F
Dew Point 29 °F
Humidity 85%
Rainfall 0.00 in
Snow Depth Not available.
UV 0 out of 12
Pollen .10 out of 12
Air Quality Not available.
Flu Activity Not available.
METAR KPCZ 230415Z AUTO 05004KT 3SM RA OVC005 02/01 A2969 RMK AO2 T00150009

More Conditions Fewer Conditions

10-Day Weather Forecast

Almanac

Astronomy

Dec. 22, 2014 Rise Set
Actual Time
Civil Twilight
Nautical Twilight
Astronomical Twilight
Moon
Length of Visible Light
Length of Day
Tomorrow will be .
, % of the Moon is Illuminated

Today's Extremes

State Highs State Lows

Community

WunderPhotos

Upload Photos

1,779,778 photos uploaded!

WunderBlogs® & News

Nearby

Air Quality

  Air Quality AQ Index Pollutant
Not available.

Snow Depth

Station Depth Elevation

Earthquake Activity

City Distance Mag. Time & Date
Minimum magnitude displayed is 2.5.

Coastal Water Temperatures

Place Temperature

Nearby Weather Stations